createdAt,value
2023-03-26T00:01:05.770Z,7.10
2023-03-26T00:04:23.336Z,7.16
2023-03-26T00:07:31.202Z,7.20
2023-03-26T00:10:49.786Z,7.20
2023-03-26T00:13:59.003Z,7.26
2023-03-26T00:17:23.804Z,7.30
2023-03-26T00:20:33.404Z,7.30
2023-03-26T00:23:58.012Z,7.30
2023-03-26T00:27:05.857Z,7.22
2023-03-26T00:30:23.813Z,7.20
2023-03-26T00:33:32.853Z,7.20
2023-03-26T00:36:50.548Z,7.20
2023-03-26T00:40:06.967Z,7.20
2023-03-26T00:43:26.668Z,7.20
2023-03-26T00:46:36.402Z,7.20
2023-03-26T00:49:55.110Z,7.20
2023-03-26T00:53:03.273Z,7.20
2023-03-26T00:56:28.237Z,7.20
2023-03-26T00:59:35.969Z,7.20
2023-03-26T01:02:45.231Z,7.20
2023-03-26T01:05:59.176Z,7.16
2023-03-26T01:09:16.379Z,7.10
2023-03-26T01:12:28.219Z,7.10
2023-03-26T01:15:39.330Z,7.10
2023-03-26T01:18:47.283Z,7.10
2023-03-26T01:21:55.477Z,7.10
2023-03-26T01:25:03.854Z,7.10
2023-03-26T01:28:14.247Z,7.10
2023-03-26T01:31:37.181Z,7.10
2023-03-26T01:35:01.632Z,7.10
2023-03-26T01:38:26.025Z,7.10
2023-03-26T01:41:44.767Z,7.10
2023-03-26T01:45:00.800Z,7.10
2023-03-26T01:48:10.443Z,7.10
2023-03-26T01:51:30.991Z,7.10
2023-03-26T01:54:39.251Z,7.10
2023-03-26T01:58:01.327Z,7.10
2023-03-26T02:01:27.423Z,7.06
2023-03-26T02:04:44.315Z,7.00
2023-03-26T02:07:58.769Z,7.00
2023-03-26T02:11:13.126Z,7.00
2023-03-26T02:14:22.215Z,7.00
2023-03-26T02:17:32.647Z,7.00
2023-03-26T02:20:40.851Z,6.98
2023-03-26T02:23:50.880Z,7.00
2023-03-26T02:27:02.337Z,7.00
2023-03-26T02:30:15.089Z,7.00
2023-03-26T02:33:22.954Z,7.00
2023-03-26T02:36:31.787Z,7.00
2023-03-26T02:39:40.420Z,7.00
2023-03-26T02:42:48.698Z,7.00
2023-03-26T02:45:56.679Z,7.02
2023-03-26T02:49:04.842Z,7.00
2023-03-26T02:52:12.825Z,7.00
2023-03-26T02:55:20.808Z,7.00
2023-03-26T02:58:30.367Z,7.00
2023-03-26T03:01:43.043Z,7.00
2023-03-26T03:04:52.157Z,7.00
2023-03-26T03:08:00.157Z,7.00
2023-03-26T03:11:14.785Z,7.00
2023-03-26T03:14:22.832Z,6.90
2023-03-26T03:17:30.855Z,6.90
2023-03-26T03:20:38.829Z,6.80
2023-03-26T03:23:46.949Z,6.80
2023-03-26T03:26:56.976Z,6.80
2023-03-26T03:30:05.293Z,6.78
2023-03-26T03:33:13.842Z,6.70
2023-03-26T03:36:24.469Z,6.70
2023-03-26T03:39:32.301Z,6.70
2023-03-26T03:42:40.918Z,6.60
2023-03-26T03:45:48.718Z,6.60
2023-03-26T03:48:56.817Z,6.50
2023-03-26T03:52:04.795Z,6.50
2023-03-26T03:55:14.156Z,6.50
2023-03-26T03:58:22.346Z,6.46
2023-03-26T04:01:30.935Z,6.40
2023-03-26T04:04:40.273Z,6.40
2023-03-26T04:07:49.129Z,6.40
2023-03-26T04:10:57.028Z,6.40
2023-03-26T04:14:04.729Z,6.46
2023-03-26T04:17:13.641Z,6.44
2023-03-26T04:20:22.099Z,6.40
2023-03-26T04:23:30.411Z,6.40
2023-03-26T04:26:38.539Z,6.40
2023-03-26T04:29:50.424Z,6.40
2023-03-26T04:33:04.242Z,6.36
2023-03-26T04:36:16.074Z,6.36
2023-03-26T04:39:29.629Z,6.40
2023-03-26T04:42:37.952Z,6.40
2023-03-26T04:45:48.086Z,6.50
2023-03-26T04:48:55.691Z,6.60
2023-03-26T04:52:03.601Z,6.60
2023-03-26T04:55:25.841Z,6.70
2023-03-26T04:58:34.137Z,6.72
2023-03-26T05:01:42.341Z,6.80
2023-03-26T05:04:50.646Z,6.88
2023-03-26T05:07:58.791Z,6.90
2023-03-26T05:11:11.756Z,7.00
2023-03-26T05:14:20.424Z,7.00
2023-03-26T05:17:30.995Z,7.10
2023-03-26T05:20:39.208Z,7.10
2023-03-26T05:23:46.908Z,7.20
2023-03-26T05:26:55.113Z,7.20
2023-03-26T05:30:08.742Z,7.30
2023-03-26T05:33:17.960Z,7.30
2023-03-26T05:36:26.144Z,7.40
2023-03-26T05:39:35.655Z,7.50
2023-03-26T05:42:44.459Z,7.70
2023-03-26T05:45:53.518Z,7.90
2023-03-26T05:49:01.684Z,8.10
2023-03-26T05:52:09.670Z,8.30
2023-03-26T05:55:18.579Z,8.42
2023-03-26T05:58:27.100Z,8.60
2023-03-26T06:01:34.856Z,8.80
2023-03-26T06:04:45.795Z,9.00
2023-03-26T06:07:54.103Z,9.10
2023-03-26T06:11:08.437Z,9.26
2023-03-26T06:14:16.376Z,9.40
2023-03-26T06:17:24.552Z,9.60
2023-03-26T06:20:32.361Z,9.78
2023-03-26T06:23:40.425Z,9.90
2023-03-26T06:26:48.548Z,10.00
2023-03-26T06:29:56.861Z,10.10
2023-03-26T06:33:04.716Z,10.10
2023-03-26T06:36:13.740Z,10.10
2023-03-26T06:39:21.861Z,10.10
2023-03-26T06:43:06.873Z,10.20
2023-03-26T06:45:57.495Z,10.30
2023-03-26T06:49:05.611Z,10.50
2023-03-26T06:52:13.634Z,10.70
2023-03-26T06:55:21.699Z,10.90
2023-03-26T06:58:29.988Z,11.10
2023-03-26T07:01:38.372Z,11.30
2023-03-26T07:04:46.500Z,11.56
2023-03-26T07:07:54.547Z,11.80
2023-03-26T07:11:02.684Z,11.90
2023-03-26T07:14:10.929Z,11.96
2023-03-26T07:17:18.647Z,12.00
2023-03-26T07:20:27.515Z,12.00
2023-03-26T07:23:37.017Z,12.10
2023-03-26T07:26:57.382Z,12.20
2023-03-26T07:30:14.709Z,12.20
2023-03-26T07:33:33.924Z,12.10
2023-03-26T07:36:56.576Z,12.00
2023-03-26T07:40:17.699Z,11.90
2023-03-26T07:43:49.569Z,11.74
2023-03-26T07:47:00.118Z,11.60
2023-03-26T07:50:17.698Z,11.50
2023-03-26T07:53:28.149Z,11.50
2023-03-26T07:56:39.680Z,11.54
2023-03-26T07:59:53.765Z,11.60
2023-03-26T08:03:48.763Z,11.60
2023-03-26T08:07:06.321Z,11.60
2023-03-26T08:10:22.364Z,11.60
2023-03-26T08:13:40.739Z,11.54
2023-03-26T08:16:56.080Z,11.58
2023-03-26T08:20:20.525Z,11.60
2023-03-26T08:23:38.372Z,11.60
2023-03-26T08:27:09.078Z,11.70
2023-03-26T08:30:23.855Z,11.70
2023-03-26T08:33:35.494Z,11.70
2023-03-26T08:36:45.268Z,11.72
2023-03-26T08:39:53.129Z,11.80
2023-03-26T08:43:39.301Z,11.80
2023-03-26T08:47:33.190Z,11.90
2023-03-26T08:51:28.058Z,11.90
2023-03-26T08:55:06.243Z,12.00
2023-03-26T08:58:47.317Z,12.00
2023-03-26T09:02:35.742Z,12.00
2023-03-26T09:06:17.042Z,12.00
2023-03-26T09:10:32.120Z,12.00
2023-03-26T09:14:18.246Z,12.00
2023-03-26T09:18:15.797Z,12.00
2023-03-26T09:22:11.265Z,12.00
2023-03-26T09:25:54.526Z,12.00
2023-03-26T09:30:06.887Z,12.10
2023-03-26T09:34:01.600Z,12.20
2023-03-26T09:37:26.843Z,12.40
2023-03-26T09:40:49.171Z,12.80
2023-03-26T09:44:57.879Z,13.10
2023-03-26T09:48:32.089Z,13.56
2023-03-26T09:52:03.869Z,14.02
2023-03-26T09:55:43.871Z,14.38
2023-03-26T09:59:29.407Z,14.70
2023-03-26T10:03:14.639Z,15.00
2023-03-26T10:06:54.269Z,15.20
2023-03-26T10:10:14.108Z,15.30
2023-03-26T10:13:30.513Z,15.52
2023-03-26T10:16:53.822Z,15.40
2023-03-26T10:20:35.326Z,15.30
2023-03-26T10:24:19.951Z,15.30
2023-03-26T10:27:43.304Z,15.50
2023-03-26T10:31:11.937Z,15.82
2023-03-26T10:34:56.789Z,16.00
2023-03-26T10:38:21.459Z,15.90
2023-03-26T10:41:41.037Z,15.80
2023-03-26T10:45:28.598Z,15.70
2023-03-26T10:48:56.793Z,15.56
2023-03-26T10:52:10.770Z,15.50
2023-03-26T10:55:29.106Z,15.60
2023-03-26T10:58:48.791Z,15.60
2023-03-26T11:02:29.332Z,15.80
2023-03-26T11:05:56.218Z,16.00
2023-03-26T11:09:21.178Z,16.00
2023-03-26T11:12:39.651Z,15.84
2023-03-26T11:15:54.586Z,15.70
2023-03-26T11:19:06.410Z,15.56
2023-03-26T11:22:31.194Z,15.40
2023-03-26T11:26:03.546Z,15.30
2023-03-26T11:29:31.281Z,15.30
2023-03-26T11:32:47.276Z,15.30
2023-03-26T11:36:02.827Z,15.30
2023-03-26T11:39:15.547Z,15.40
2023-03-26T11:42:26.977Z,15.30
2023-03-26T11:45:40.875Z,15.30
2023-03-26T11:48:53.942Z,15.20
2023-03-26T11:52:03.865Z,15.20
2023-03-26T11:55:16.613Z,15.40
2023-03-26T11:58:40.245Z,15.72
2023-03-26T12:01:58.330Z,15.80
2023-03-26T12:05:20.423Z,16.20
2023-03-26T12:08:40.401Z,16.30
2023-03-26T12:11:50.871Z,16.30
2023-03-26T12:14:59.891Z,16.20
2023-03-26T12:18:28.061Z,16.10
2023-03-26T12:21:49.729Z,16.02
2023-03-26T12:25:15.523Z,16.36
2023-03-26T12:28:33.889Z,16.50
2023-03-26T12:32:05.002Z,16.50
2023-03-26T12:35:26.879Z,16.30
2023-03-26T12:38:39.258Z,16.00
2023-03-26T12:44:47.167Z,15.90
2023-03-26T12:45:30.085Z,15.74
2023-03-26T12:48:38.663Z,15.62
2023-03-26T12:51:57.009Z,15.58
2023-03-26T12:55:23.872Z,15.50
2023-03-26T12:59:04.616Z,15.50
2023-03-26T13:02:44.104Z,15.92
2023-03-26T13:06:09.341Z,16.00
2023-03-26T13:09:46.945Z,15.74
2023-03-26T13:13:10.023Z,15.60
2023-03-26T13:16:30.049Z,15.60
2023-03-26T13:19:48.169Z,15.90
2023-03-26T13:23:08.454Z,16.00
2023-03-26T13:26:42.994Z,16.52
2023-03-26T13:29:59.629Z,16.50
2023-03-26T13:33:27.223Z,16.24
2023-03-26T13:36:48.184Z,15.90
2023-03-26T13:40:17.498Z,15.66
2023-03-26T13:43:48.621Z,15.50
2023-03-26T13:47:03.182Z,15.40
2023-03-26T13:50:25.264Z,15.66
2023-03-26T13:53:43.433Z,16.42
2023-03-26T13:56:59.642Z,16.90
2023-03-26T14:00:17.344Z,16.90
2023-03-26T14:03:33.716Z,16.70
2023-03-26T14:06:54.254Z,16.52
2023-03-26T14:10:09.597Z,16.80
2023-03-26T14:13:23.880Z,17.20
2023-03-26T14:16:41.981Z,17.50
2023-03-26T14:24:50.521Z,17.36
2023-03-26T14:28:20.487Z,17.18
2023-03-26T14:31:38.010Z,17.10
2023-03-26T14:35:08.355Z,17.36
2023-03-26T14:38:54.956Z,17.62
2023-03-26T14:42:15.923Z,17.80
2023-03-26T14:49:40.723Z,18.18
2023-03-26T14:53:00.841Z,18.20
2023-03-26T14:56:49.880Z,18.20
2023-03-26T15:00:45.963Z,18.20
2023-03-26T15:04:55.085Z,18.10
2023-03-26T15:08:53.632Z,18.00
2023-03-26T15:12:16.697Z,17.90
2023-03-26T15:15:45.817Z,17.70
2023-03-26T15:19:45.734Z,17.50
2023-03-26T15:23:41.100Z,17.30
2023-03-26T15:27:39.466Z,17.20
2023-03-26T15:31:37.146Z,17.10
2023-03-26T15:34:43.898Z,16.90
2023-03-26T15:38:49.451Z,16.72
2023-03-26T15:42:10.379Z,16.58
2023-03-26T15:45:14.926Z,16.40
2023-03-26T15:48:54.054Z,16.20
2023-03-26T15:52:14.210Z,16.10
2023-03-26T15:55:36.643Z,15.90
2023-03-26T15:58:57.078Z,15.80
2023-03-26T16:02:21.025Z,15.70
2023-03-26T16:06:10.081Z,15.60
2023-03-26T16:09:39.105Z,15.50
2023-03-26T16:13:12.992Z,15.36
2023-03-26T16:16:55.510Z,15.20
2023-03-26T16:20:31.670Z,15.00
2023-03-26T16:23:58.931Z,14.90
2023-03-26T16:27:36.970Z,14.80
2023-03-26T16:31:10.793Z,14.64
2023-03-26T16:34:48.832Z,14.50
2023-03-26T16:38:14.858Z,14.40
2023-03-26T16:41:27.472Z,14.30
2023-03-26T16:44:49.557Z,14.20
2023-03-26T16:48:08.577Z,14.10
2023-03-26T16:51:28.233Z,13.98
2023-03-26T16:54:45.947Z,13.80
2023-03-26T16:58:05.923Z,13.62
2023-03-26T17:01:21.614Z,13.50
2023-03-26T17:04:37.308Z,13.40
2023-03-26T17:07:53.232Z,13.30
2023-03-26T17:11:10.475Z,13.24
2023-03-26T17:14:36.467Z,13.20
2023-03-26T17:18:01.295Z,13.10
2023-03-26T17:21:18.346Z,13.08
2023-03-26T17:24:41.051Z,13.00
2023-03-26T17:27:46.439Z,12.80
2023-03-26T17:31:07.793Z,12.70
2023-03-26T17:34:46.641Z,12.62
2023-03-26T17:37:55.978Z,12.50
2023-03-26T17:41:04.280Z,12.40
2023-03-26T17:44:41.794Z,12.34
2023-03-26T17:47:58.989Z,12.30
2023-03-26T17:51:23.727Z,12.30
2023-03-26T17:54:35.987Z,12.30
2023-03-26T17:57:52.004Z,12.20
2023-03-26T18:01:15.802Z,12.20
2023-03-26T18:04:34.768Z,12.20
2023-03-26T18:08:14.702Z,12.16
2023-03-26T18:11:34.442Z,12.10
2023-03-26T18:15:15.364Z,12.06
2023-03-26T18:18:29.741Z,12.00
2023-03-26T18:21:43.744Z,12.00
2023-03-26T18:24:52.991Z,11.98
2023-03-26T18:28:02.081Z,11.90
2023-03-26T18:31:21.676Z,11.90
2023-03-26T18:34:33.339Z,11.90
2023-03-26T18:37:44.999Z,11.90
2023-03-26T18:40:57.083Z,11.90
2023-03-26T18:44:13.449Z,11.90
2023-03-26T18:47:21.915Z,11.90
2023-03-26T18:50:37.190Z,11.90
2023-03-26T18:53:55.207Z,11.90
2023-03-26T18:57:15.001Z,11.90
2023-03-26T19:00:30.538Z,11.90
2023-03-26T19:03:43.912Z,11.82
2023-03-26T19:06:54.978Z,11.80
2023-03-26T19:10:06.439Z,11.80
2023-03-26T19:13:21.462Z,11.80
2023-03-26T19:16:36.815Z,11.80
2023-03-26T19:19:45.315Z,11.76
2023-03-26T19:22:58.048Z,11.70
2023-03-26T19:26:09.495Z,11.70
2023-03-26T19:29:29.436Z,11.70
2023-03-26T19:32:35.820Z,11.64
2023-03-26T19:35:45.036Z,11.60
2023-03-26T19:39:04.847Z,11.60
2023-03-26T19:42:19.795Z,11.60
2023-03-26T19:45:28.404Z,11.50
2023-03-26T19:48:45.527Z,11.50
2023-03-26T19:52:03.800Z,11.50
2023-03-26T19:55:25.250Z,11.40
2023-03-26T19:58:35.608Z,11.38
2023-03-26T20:01:43.432Z,11.30
2023-03-26T20:04:51.300Z,11.30
2023-03-26T20:08:03.187Z,11.26
2023-03-26T20:11:24.087Z,11.20
2023-03-26T20:14:32.794Z,11.20
2023-03-26T20:17:42.856Z,11.20
2023-03-26T20:20:51.053Z,11.20
2023-03-26T20:24:00.633Z,11.14
2023-03-26T20:27:08.760Z,11.10
2023-03-26T20:30:27.530Z,11.10
2023-03-26T20:33:45.622Z,11.10
2023-03-26T20:36:56.215Z,11.10
2023-03-26T20:40:04.778Z,11.06
2023-03-26T20:43:18.477Z,11.00
2023-03-26T20:46:31.248Z,11.00
2023-03-26T20:49:40.380Z,11.00
2023-03-26T20:52:49.483Z,10.98
2023-03-26T20:55:57.262Z,10.90
2023-03-26T20:59:11.047Z,10.90
2023-03-26T21:02:20.516Z,10.90
2023-03-26T21:05:30.875Z,10.80
2023-03-26T21:08:41.347Z,10.70
2023-03-26T21:12:02.122Z,10.64
2023-03-26T21:15:23.123Z,10.58
2023-03-26T21:18:35.783Z,10.50
2023-03-26T21:21:47.661Z,10.44
2023-03-26T21:25:10.504Z,10.40
2023-03-26T21:28:41.366Z,10.32
2023-03-26T21:31:54.016Z,10.26
2023-03-26T21:35:05.226Z,10.20
2023-03-26T21:38:20.269Z,10.20
2023-03-26T21:41:43.709Z,10.10
2023-03-26T21:44:52.829Z,10.10
2023-03-26T21:48:01.813Z,10.02
2023-03-26T21:51:14.964Z,10.00
2023-03-26T21:54:33.059Z,9.90
2023-03-26T21:58:04.201Z,9.90
2023-03-26T22:01:34.773Z,9.90
2023-03-26T22:07:58.595Z,9.80
2023-03-26T22:11:09.258Z,9.70
2023-03-26T22:14:17.898Z,9.70
2023-03-26T22:17:26.222Z,9.70
2023-03-26T22:20:34.630Z,9.66
2023-03-26T22:23:42.801Z,9.60
2023-03-26T22:30:24.798Z,9.60
2023-03-26T22:33:32.770Z,9.60
2023-03-26T22:36:40.957Z,9.52
2023-03-26T22:39:48.898Z,9.50
2023-03-26T22:42:58.962Z,9.50
2023-03-26T22:46:09.080Z,9.50
2023-03-26T22:49:17.854Z,9.40
2023-03-26T22:52:26.359Z,9.40
2023-03-26T22:55:34.490Z,9.40
2023-03-26T22:58:42.906Z,9.40
2023-03-26T23:01:50.993Z,9.30
2023-03-26T23:04:59.654Z,9.30
2023-03-26T23:08:09.182Z,9.20
2023-03-26T23:11:19.654Z,9.10
2023-03-26T23:14:28.749Z,9.00
2023-03-26T23:17:39.785Z,8.90
2023-03-26T23:20:55.647Z,8.80
2023-03-26T23:24:04.659Z,8.70
2023-03-26T23:27:13.122Z,8.62
2023-03-26T23:30:21.901Z,8.60
2023-03-26T23:33:34.427Z,8.50
2023-03-26T23:36:42.636Z,8.42
2023-03-26T23:39:51.003Z,8.40
2023-03-26T23:42:59.091Z,8.40
2023-03-26T23:46:10.889Z,8.40
2023-03-26T23:49:19.086Z,8.40
2023-03-26T23:52:27.674Z,8.30
2023-03-26T23:55:36.748Z,8.32
2023-03-26T23:58:45.432Z,8.30
